Terminal Aerodrome Forecast
Issued by NWS Tampa Bay Area, FL

Home | Current Version | Previous Version | Text Only | Print | Product List | Glossary Off
Versions: 1 2 3 4 5 6 7 8 9 10 11 12

000
FTUS42 KTBW 161735
TAFSRQ
TAF
KSRQ 161735Z 1618/1718 29008KT P6SM VCTS SCT035CB BKN100
     FM162000 31007KT P6SM FEW040 BKN250
     FM170100 VRB03KT P6SM FEW030 SCT250
     FM171600 29007KT P6SM VCTS SCT030CB BKN100=

USA.gov is the U.S. government's official web portal to all federal, state and local government web resources and services.